createdAt,value
2023-04-17T00:04:07.756Z,83.15
2023-04-17T00:09:07.413Z,82.84
2023-04-17T00:14:07.378Z,83.04
2023-04-17T00:19:07.350Z,83.45
2023-04-17T00:24:07.310Z,83.35
2023-04-17T00:29:07.237Z,83.80
2023-04-17T00:34:07.178Z,84.61
2023-04-17T00:39:07.154Z,84.75
2023-04-17T00:44:07.058Z,85.57
2023-04-17T00:49:07.028Z,84.82
2023-04-17T00:54:07.028Z,85.88
2023-04-17T00:59:06.911Z,85.77
2023-04-17T01:04:07.031Z,85.37
2023-04-17T01:09:06.875Z,86.08
2023-04-17T01:14:06.803Z,85.51
2023-04-17T01:19:06.750Z,86.39
2023-04-17T01:24:06.681Z,85.37
2023-04-17T01:29:06.565Z,85.10
2023-04-17T01:34:06.540Z,84.86
2023-04-17T01:39:06.499Z,84.86
2023-04-17T01:44:06.458Z,85.37
2023-04-17T01:49:06.371Z,84.55
2023-04-17T01:54:06.339Z,84.75
2023-04-17T01:59:06.283Z,85.06
2023-04-17T02:04:06.310Z,85.61
2023-04-17T02:09:06.186Z,84.25
2023-04-17T02:14:06.162Z,83.98
2023-04-17T02:19:06.036Z,84.34
2023-04-17T02:24:06.031Z,84.42
2023-04-17T02:29:05.981Z,83.78
2023-04-17T02:34:05.951Z,83.57
2023-04-17T02:39:05.919Z,83.37
2023-04-17T02:44:05.739Z,83.20
2023-04-17T02:49:05.684Z,82.55
2023-04-17T02:54:05.719Z,83.30
2023-04-17T02:59:05.669Z,83.10
2023-04-17T03:04:05.738Z,83.20
2023-04-17T03:09:05.485Z,83.00
2023-04-17T03:14:05.438Z,82.24
2023-04-17T03:19:05.358Z,81.26
2023-04-17T03:24:05.317Z,81.87
2023-04-17T03:29:05.264Z,82.01
2023-04-17T03:34:05.226Z,82.12
2023-04-17T03:39:05.177Z,81.60
2023-04-17T03:44:05.125Z,80.44
2023-04-17T03:49:05.048Z,80.48
2023-04-17T03:54:04.981Z,80.65
2023-04-17T03:59:04.953Z,80.44
2023-04-17T04:04:05.220Z,81.60
2023-04-17T04:09:04.829Z,80.69
2023-04-17T04:14:04.752Z,80.44
2023-04-17T04:19:04.706Z,80.48
2023-04-17T04:24:04.610Z,80.69
2023-04-17T04:29:04.658Z,81.34
2023-04-17T04:34:13.405Z,80.34
2023-04-17T04:39:04.473Z,81.13
2023-04-17T04:44:04.510Z,81.34
2023-04-17T04:49:04.468Z,81.34
2023-04-17T04:54:04.315Z,80.99
2023-04-17T04:59:04.298Z,81.24
2023-04-17T05:04:04.527Z,80.99
2023-04-17T05:09:04.285Z,81.13
2023-04-17T05:14:05.257Z,81.27
2023-04-17T05:19:04.432Z,80.83
2023-04-17T05:24:04.052Z,80.79
2023-04-17T05:29:04.039Z,80.99
2023-04-17T05:34:04.984Z,81.34
2023-04-17T05:39:04.020Z,81.54
2023-04-17T05:44:03.907Z,81.13
2023-04-17T05:49:03.847Z,81.26
2023-04-17T05:54:03.836Z,80.73
2023-04-17T05:59:03.734Z,82.20
2023-04-17T06:04:04.003Z,81.68
2023-04-17T06:09:03.613Z,80.34
2023-04-17T06:14:03.470Z,80.38
2023-04-17T06:19:03.476Z,80.73
2023-04-17T06:24:03.449Z,79.77
2023-04-17T06:29:03.399Z,79.97
2023-04-17T06:34:03.408Z,78.81
2023-04-17T06:39:03.278Z,79.73
2023-04-17T06:44:03.248Z,78.71
2023-04-17T06:49:03.252Z,78.16
2023-04-17T06:54:03.112Z,77.75
2023-04-17T06:59:03.289Z,78.30
2023-04-17T07:04:03.161Z,79.09
2023-04-17T07:09:03.063Z,79.80
2023-04-17T07:14:02.865Z,78.47
2023-04-17T07:19:02.823Z,78.88
2023-04-17T07:24:02.870Z,78.50
2023-04-17T07:29:02.688Z,78.23
2023-04-17T07:34:02.612Z,76.28
2023-04-17T07:39:02.662Z,75.78
2023-04-17T07:44:02.534Z,77.21
2023-04-17T07:49:02.495Z,76.39
2023-04-17T07:54:02.434Z,77.31
2023-04-17T07:59:02.521Z,76.62
2023-04-17T08:04:02.638Z,76.25
2023-04-17T08:09:02.246Z,75.16
2023-04-17T08:14:02.292Z,75.27
2023-04-17T08:19:02.073Z,74.62
2023-04-17T08:24:02.012Z,74.96
2023-04-17T08:29:02.018Z,75.09
2023-04-17T08:34:13.076Z,74.96
2023-04-17T08:39:02.876Z,72.96
2023-04-17T08:44:01.831Z,70.25
2023-04-17T08:49:01.749Z,68.99
2023-04-17T08:54:01.706Z,70.31
2023-04-17T08:59:01.658Z,68.32
2023-04-17T09:04:01.769Z,67.78
2023-04-17T09:09:01.652Z,66.93
2023-04-17T09:14:01.526Z,66.33
2023-04-17T09:19:01.467Z,65.14
2023-04-17T09:24:01.426Z,64.67
2023-04-17T09:29:01.442Z,62.88
2023-04-17T09:34:01.363Z,63.07
2023-04-17T09:39:01.279Z,61.88
2023-04-17T09:44:01.192Z,59.38
2023-04-17T09:49:01.110Z,60.52
2023-04-17T09:54:01.153Z,60.46
2023-04-17T09:59:01.084Z,59.39
2023-04-17T10:04:01.220Z,55.95
2023-04-17T10:09:00.968Z,57.90
2023-04-17T10:14:00.845Z,57.14
2023-04-17T10:19:00.840Z,57.54
2023-04-17T10:24:00.701Z,56.68
2023-04-17T10:29:00.673Z,52.87
2023-04-17T10:34:09.710Z,51.28
2023-04-17T10:39:00.568Z,51.73
2023-04-17T10:44:00.486Z,51.89
2023-04-17T10:49:00.440Z,52.26
2023-04-17T10:54:00.419Z,52.09
2023-04-17T10:59:00.379Z,50.87
2023-04-17T11:04:00.313Z,51.45
2023-04-17T11:09:00.263Z,50.64
2023-04-17T11:14:00.182Z,50.84
2023-04-17T11:19:00.155Z,51.73
2023-04-17T11:24:00.107Z,51.15
2023-04-17T11:29:00.057Z,50.45
2023-04-17T11:34:00.007Z,50.02
2023-04-17T11:38:59.919Z,51.35
2023-04-17T11:43:59.934Z,51.48
2023-04-17T11:48:59.944Z,53.27
2023-04-17T11:53:59.780Z,52.49
2023-04-17T11:58:59.707Z,49.29
2023-04-17T12:03:59.948Z,48.46
2023-04-17T12:08:59.603Z,46.17
2023-04-17T12:13:59.686Z,46.26
2023-04-17T12:18:59.546Z,48.24
2023-04-17T12:23:59.459Z,47.41
2023-04-17T12:28:59.417Z,46.80
2023-04-17T12:33:59.424Z,45.34
2023-04-17T12:38:59.278Z,47.17
2023-04-17T12:43:59.257Z,48.63
2023-04-17T12:48:59.316Z,46.69
2023-04-17T12:53:59.163Z,47.07
2023-04-17T12:59:02.123Z,47.35
2023-04-17T13:03:59.148Z,46.19
2023-04-17T13:08:58.981Z,47.05
2023-04-17T13:13:58.945Z,45.46
2023-04-17T13:18:58.852Z,47.11
2023-04-17T13:23:58.843Z,47.80
2023-04-17T13:28:58.788Z,46.29
2023-04-17T13:33:58.718Z,46.67
2023-04-17T13:38:58.648Z,45.62
2023-04-17T13:43:58.626Z,44.45
2023-04-17T13:48:58.573Z,45.09
2023-04-17T13:53:58.587Z,45.64
2023-04-17T13:58:58.472Z,45.90
2023-04-17T14:03:58.619Z,44.98
2023-04-17T14:08:58.375Z,45.26
2023-04-17T14:13:58.324Z,45.89
2023-04-17T14:19:12.722Z,44.51
2023-04-17T14:23:59.236Z,45.97
2023-04-17T14:28:58.091Z,44.67
2023-04-17T14:33:58.062Z,46.07
2023-04-17T14:38:58.118Z,45.34
2023-04-17T14:43:58.077Z,45.50
2023-04-17T14:48:57.924Z,44.47
2023-04-17T14:53:57.856Z,43.95
2023-04-17T14:58:57.817Z,44.25
2023-04-17T15:03:57.963Z,43.40
2023-04-17T15:08:57.738Z,45.20
2023-04-17T15:13:57.628Z,46.48
2023-04-17T15:18:57.577Z,46.66
2023-04-17T15:23:57.557Z,44.51
2023-04-17T15:28:57.494Z,44.31
2023-04-17T15:33:57.429Z,45.25
2023-04-17T15:38:57.495Z,45.47
2023-04-17T15:43:57.336Z,44.66
2023-04-17T15:49:08.282Z,45.18
2023-04-17T15:53:58.210Z,44.62
2023-04-17T15:58:57.256Z,42.74
2023-04-17T16:03:57.395Z,43.57
2023-04-17T16:08:57.068Z,45.06
2023-04-17T16:13:56.982Z,44.60
2023-04-17T16:18:58.089Z,44.58
2023-04-17T16:23:56.930Z,44.80
2023-04-17T16:28:56.916Z,43.67
2023-04-17T16:34:05.718Z,43.04
2023-04-17T16:38:56.703Z,43.49
2023-04-17T16:43:56.749Z,44.58
2023-04-17T16:48:56.651Z,43.37
2023-04-17T16:53:56.611Z,44.07
2023-04-17T16:58:56.491Z,43.77
2023-04-17T17:03:56.477Z,44.52
2023-04-17T17:08:56.433Z,43.99
2023-04-17T17:13:56.355Z,44.52
2023-04-17T17:18:56.290Z,44.48
2023-04-17T17:23:56.248Z,45.53
2023-04-17T17:28:56.187Z,45.53
2023-04-17T17:33:56.110Z,44.82
2023-04-17T17:38:56.279Z,46.75
2023-04-17T17:43:56.118Z,46.26
2023-04-17T17:48:55.996Z,45.47
2023-04-17T17:53:55.885Z,46.18
2023-04-17T17:58:55.882Z,47.27
2023-04-17T18:03:56.008Z,46.87
2023-04-17T18:08:55.772Z,47.62
2023-04-17T18:13:55.695Z,47.82
2023-04-17T18:18:55.625Z,48.54
2023-04-17T18:23:55.602Z,49.16
2023-04-17T18:28:55.563Z,49.37
2023-04-17T18:33:55.500Z,49.16
2023-04-17T18:38:55.454Z,49.67
2023-04-17T18:43:55.380Z,51.01
2023-04-17T18:48:55.320Z,51.72
2023-04-17T18:53:55.283Z,51.95
2023-04-17T18:58:55.247Z,52.58
2023-04-17T19:03:55.168Z,54.44
2023-04-17T19:08:55.159Z,54.26
2023-04-17T19:13:55.058Z,54.16
2023-04-17T19:18:55.000Z,55.30
2023-04-17T19:23:54.912Z,55.81
2023-04-17T19:28:54.971Z,56.52
2023-04-17T19:33:54.880Z,56.82
2023-04-17T19:38:54.787Z,57.97
2023-04-17T19:43:54.798Z,58.40
2023-04-17T19:48:54.855Z,59.14
2023-04-17T19:53:54.766Z,62.51
2023-04-17T19:58:54.576Z,60.06
2023-04-17T20:03:54.501Z,60.16
2023-04-17T20:08:54.448Z,61.69
2023-04-17T20:13:54.395Z,61.31
2023-04-17T20:18:54.303Z,62.43
2023-04-17T20:23:54.259Z,62.77
2023-04-17T20:28:54.331Z,63.92
2023-04-17T20:33:54.136Z,65.07
2023-04-17T20:38:54.115Z,65.58
2023-04-17T20:43:54.017Z,66.63
2023-04-17T20:48:54.010Z,67.18
2023-04-17T20:53:53.961Z,65.84
2023-04-17T20:58:53.925Z,64.28
2023-04-17T21:03:57.326Z,63.87
2023-04-17T21:08:53.769Z,64.93
2023-04-17T21:13:53.711Z,65.03
2023-04-17T21:18:53.799Z,65.23
2023-04-17T21:23:53.622Z,66.28
2023-04-17T21:28:53.567Z,65.16
2023-04-17T21:33:53.529Z,65.70
2023-04-17T21:38:53.452Z,65.91
2023-04-17T21:43:53.353Z,66.31
2023-04-17T21:48:53.476Z,65.50
2023-04-17T21:53:53.263Z,65.19
2023-04-17T21:58:55.325Z,63.45
2023-04-17T22:03:53.261Z,64.34
2023-04-17T22:08:53.168Z,63.12
2023-04-17T22:13:53.141Z,63.32
2023-04-17T22:18:53.055Z,62.81
2023-04-17T22:23:52.979Z,62.10
2023-04-17T22:28:52.921Z,61.51
2023-04-17T22:35:27.517Z,60.26
2023-04-17T22:40:27.456Z,61.51
2023-04-17T22:45:27.424Z,61.13
2023-04-17T22:50:27.395Z,61.98
2023-04-17T22:55:27.493Z,61.67
2023-04-17T23:00:27.281Z,61.70
2023-04-17T23:05:27.217Z,61.29
2023-04-17T23:10:27.186Z,61.32
2023-04-17T23:15:27.270Z,60.60
2023-04-17T23:20:27.039Z,60.91
2023-04-17T23:25:27.138Z,63.29
2023-04-17T23:30:26.921Z,62.92
2023-04-17T23:35:26.908Z,63.53
2023-04-17T23:40:26.833Z,63.64
2023-04-17T23:45:26.770Z,63.79
2023-04-17T23:50:26.736Z,64.20
2023-04-17T23:55:26.655Z,63.90
